sensor_id;sensor_type;location;lat;lon;timestamp;P1;durP1;ratioP1;P2;durP2;ratioP2
19002;SDS011;9634;51.040;13.794;2023-01-10T01:13:49;5.40;;;1.33;;
19002;SDS011;9634;51.040;13.794;2023-01-10T03:17:58;3.40;;;2.27;;
19002;SDS011;9634;51.040;13.794;2023-01-10T03:23:03;5.73;;;2.60;;
19002;SDS011;9634;51.040;13.794;2023-01-10T03:28:07;6.43;;;2.90;;
19002;SDS011;9634;51.040;13.794;2023-01-10T03:33:15;6.10;;;2.77;;
19002;SDS011;9634;51.040;13.794;2023-01-10T03:38:20;5.63;;;3.00;;
19002;SDS011;9634;51.040;13.794;2023-01-10T03:43:28;5.77;;;3.00;;
19002;SDS011;9634;51.040;13.794;2023-01-10T03:48:56;5.10;;;2.80;;
19002;SDS011;9634;51.040;13.794;2023-01-10T03:54:00;6.00;;;3.07;;
19002;SDS011;9634;51.040;13.794;2023-01-10T03:59:03;6.77;;;2.90;;
19002;SDS011;9634;51.040;13.794;2023-01-10T04:04:08;5.70;;;3.10;;
19002;SDS011;9634;51.040;13.794;2023-01-10T04:09:11;4.93;;;2.73;;
19002;SDS011;9634;51.040;13.794;2023-01-10T04:14:13;8.67;;;3.10;;
19002;SDS011;9634;51.040;13.794;2023-01-10T04:19:17;7.90;;;3.23;;
19002;SDS011;9634;51.040;13.794;2023-01-10T04:24:19;7.53;;;3.37;;
19002;SDS011;9634;51.040;13.794;2023-01-10T04:29:21;6.13;;;3.20;;
19002;SDS011;9634;51.040;13.794;2023-01-10T04:34:25;7.80;;;3.40;;
19002;SDS011;9634;51.040;13.794;2023-01-10T04:39:27;7.63;;;4.17;;
19002;SDS011;9634;51.040;13.794;2023-01-10T04:44:29;9.60;;;3.23;;
19002;SDS011;9634;51.040;13.794;2023-01-10T04:49:33;6.40;;;3.20;;
19002;SDS011;9634;51.040;13.794;2023-01-10T04:54:35;6.33;;;2.80;;
19002;SDS011;9634;51.040;13.794;2023-01-10T04:59:37;10.13;;;3.90;;
19002;SDS011;9634;51.040;13.794;2023-01-10T07:03:45;11.67;;;4.13;;
19002;SDS011;9634;51.040;13.794;2023-01-10T07:08:48;11.37;;;4.30;;
19002;SDS011;9634;51.040;13.794;2023-01-10T07:13:50;8.10;;;4.13;;
19002;SDS011;9634;51.040;13.794;2023-01-10T07:18:54;8.50;;;3.90;;
19002;SDS011;9634;51.040;13.794;2023-01-10T07:23:57;7.77;;;4.07;;
19002;SDS011;9634;51.040;13.794;2023-01-10T07:28:59;11.33;;;4.20;;
19002;SDS011;9634;51.040;13.794;2023-01-10T07:34:03;11.17;;;4.30;;
19002;SDS011;9634;51.040;13.794;2023-01-10T07:39:06;12.40;;;4.90;;
19002;SDS011;9634;51.040;13.794;2023-01-10T07:44:08;10.37;;;4.60;;
19002;SDS011;9634;51.040;13.794;2023-01-10T07:49:12;8.07;;;4.40;;
19002;SDS011;9634;51.040;13.794;2023-01-10T07:54:14;8.17;;;4.27;;
19002;SDS011;9634;51.040;13.794;2023-01-10T07:59:16;8.47;;;4.43;;
19002;SDS011;9634;51.040;13.794;2023-01-10T08:04:20;9.77;;;5.03;;
19002;SDS011;9634;51.040;13.794;2023-01-10T08:09:22;8.47;;;4.63;;
19002;SDS011;9634;51.040;13.794;2023-01-10T08:14:24;8.67;;;3.77;;
19002;SDS011;9634;51.040;13.794;2023-01-10T08:19:28;7.53;;;4.27;;
19002;SDS011;9634;51.040;13.794;2023-01-10T08:24:30;8.60;;;4.00;;
19002;SDS011;9634;51.040;13.794;2023-01-10T08:29:32;6.50;;;4.25;;
19002;SDS011;9634;51.040;13.794;2023-01-10T08:34:36;8.97;;;4.27;;
19002;SDS011;9634;51.040;13.794;2023-01-10T08:39:38;7.80;;;4.23;;
19002;SDS011;9634;51.040;13.794;2023-01-10T08:44:41;8.63;;;3.87;;
19002;SDS011;9634;51.040;13.794;2023-01-10T08:49:45;8.90;;;3.83;;
19002;SDS011;9634;51.040;13.794;2023-01-10T10:53:54;7.90;;;2.17;;
19002;SDS011;9634;51.040;13.794;2023-01-10T10:58:58;4.23;;;1.30;;
19002;SDS011;9634;51.040;13.794;2023-01-10T11:04:02;9.30;;;2.67;;
19002;SDS011;9634;51.040;13.794;2023-01-10T11:09:10;7.03;;;1.60;;
19002;SDS011;9634;51.040;13.794;2023-01-10T11:14:13;7.10;;;1.87;;
19002;SDS011;9634;51.040;13.794;2023-01-10T11:19:17;7.77;;;3.03;;
19002;SDS011;9634;51.040;13.794;2023-01-10T11:24:24;6.93;;;1.97;;
19002;SDS011;9634;51.040;13.794;2023-01-10T11:29:31;7.50;;;1.70;;
19002;SDS011;9634;51.040;13.794;2023-01-10T11:34:38;8.03;;;2.20;;
19002;SDS011;9634;51.040;13.794;2023-01-10T11:39:43;8.67;;;3.17;;
19002;SDS011;9634;51.040;13.794;2023-01-10T11:44:45;9.00;;;2.17;;
19002;SDS011;9634;51.040;13.794;2023-01-10T11:49:47;9.67;;;2.53;;
19002;SDS011;9634;51.040;13.794;2023-01-10T11:54:52;7.90;;;2.30;;
19002;SDS011;9634;51.040;13.794;2023-01-10T11:59:56;4.13;;;1.90;;
19002;SDS011;9634;51.040;13.794;2023-01-10T12:05:02;9.67;;;2.17;;
19002;SDS011;9634;51.040;13.794;2023-01-10T12:10:17;8.70;;;2.37;;
19002;SDS011;9634;51.040;13.794;2023-01-10T12:15:21;10.70;;;2.00;;
19002;SDS011;9634;51.040;13.794;2023-01-10T12:20:25;7.97;;;2.30;;
19002;SDS011;9634;51.040;13.794;2023-01-10T12:25:33;10.33;;;2.30;;
19002;SDS011;9634;51.040;13.794;2023-01-10T12:30:38;7.17;;;2.03;;
19002;SDS011;9634;51.040;13.794;2023-01-10T12:35:45;6.70;;;2.67;;
19002;SDS011;9634;51.040;13.794;2023-01-10T12:40:53;6.80;;;2.20;;
19002;SDS011;9634;51.040;13.794;2023-01-10T12:46:04;6.43;;;1.80;;
19002;SDS011;9634;51.040;13.794;2023-01-10T12:51:12;5.93;;;1.97;;
19002;SDS011;9634;51.040;13.794;2023-01-10T12:56:19;4.80;;;1.77;;
19002;SDS011;9634;51.040;13.794;2023-01-10T13:01:22;7.20;;;1.70;;
19002;SDS011;9634;51.040;13.794;2023-01-10T13:06:40;5.73;;;1.67;;
19002;SDS011;9634;51.040;13.794;2023-01-10T13:11:48;8.00;;;1.90;;
19002;SDS011;9634;51.040;13.794;2023-01-10T13:16:56;5.33;;;1.83;;
19002;SDS011;9634;51.040;13.794;2023-01-10T13:22:11;8.47;;;1.70;;
19002;SDS011;9634;51.040;13.794;2023-01-10T13:27:23;8.97;;;2.30;;
19002;SDS011;9634;51.040;13.794;2023-01-10T13:32:32;5.70;;;2.00;;
19002;SDS011;9634;51.040;13.794;2023-01-10T13:37:37;6.07;;;1.80;;
19002;SDS011;9634;51.040;13.794;2023-01-10T13:42:43;8.50;;;2.10;;
19002;SDS011;9634;51.040;13.794;2023-01-10T13:48:12;5.90;;;1.50;;
19002;SDS011;9634;51.040;13.794;2023-01-10T13:59:00;11.17;;;1.50;;
19002;SDS011;9634;51.040;13.794;2023-01-10T14:04:20;5.90;;;1.60;;
19002;SDS011;9634;51.040;13.794;2023-01-10T14:09:28;5.67;;;1.57;;
19002;SDS011;9634;51.040;13.794;2023-01-10T14:14:50;6.47;;;2.00;;
19002;SDS011;9634;51.040;13.794;2023-01-10T14:20:03;9.73;;;1.67;;
19002;SDS011;9634;51.040;13.794;2023-01-10T14:25:16;4.40;;;1.50;;
19002;SDS011;9634;51.040;13.794;2023-01-10T14:30:24;5.37;;;1.77;;
19002;SDS011;9634;51.040;13.794;2023-01-10T14:35:33;6.53;;;1.40;;
19002;SDS011;9634;51.040;13.794;2023-01-10T14:40:39;8.40;;;1.87;;
19002;SDS011;9634;51.040;13.794;2023-01-10T14:45:47;4.43;;;1.37;;
19002;SDS011;9634;51.040;13.794;2023-01-10T14:51:05;4.17;;;1.60;;
19002;SDS011;9634;51.040;13.794;2023-01-10T14:56:20;6.93;;;1.40;;
19002;SDS011;9634;51.040;13.794;2023-01-10T15:01:26;5.23;;;1.87;;
19002;SDS011;9634;51.040;13.794;2023-01-10T15:06:38;5.60;;;1.50;;
19002;SDS011;9634;51.040;13.794;2023-01-10T15:11:52;6.70;;;1.80;;
19002;SDS011;9634;51.040;13.794;2023-01-10T15:16:58;6.33;;;1.83;;
19002;SDS011;9634;51.040;13.794;2023-01-10T15:22:06;6.97;;;2.23;;
19002;SDS011;9634;51.040;13.794;2023-01-10T15:27:18;12.03;;;2.80;;
19002;SDS011;9634;51.040;13.794;2023-01-10T15:32:23;9.00;;;3.00;;
19002;SDS011;9634;51.040;13.794;2023-01-10T15:37:29;9.47;;;2.20;;
19002;SDS011;9634;51.040;13.794;2023-01-10T15:42:35;5.43;;;1.60;;
19002;SDS011;9634;51.040;13.794;2023-01-10T15:47:39;6.07;;;2.10;;
19002;SDS011;9634;51.040;13.794;2023-01-10T15:52:51;4.83;;;2.13;;
19002;SDS011;9634;51.040;13.794;2023-01-10T15:57:54;3.43;;;1.40;;
19002;SDS011;9634;51.040;13.794;2023-01-10T16:02:59;8.17;;;3.20;;
19002;SDS011;9634;51.040;13.794;2023-01-10T16:08:02;5.73;;;1.87;;
19002;SDS011;9634;51.040;13.794;2023-01-10T16:13:07;5.47;;;2.10;;
19002;SDS011;9634;51.040;13.794;2023-01-10T16:18:32;5.10;;;1.83;;
19002;SDS011;9634;51.040;13.794;2023-01-10T16:23:35;6.60;;;2.17;;
19002;SDS011;9634;51.040;13.794;2023-01-10T16:28:37;7.03;;;2.00;;
19002;SDS011;9634;51.040;13.794;2023-01-10T16:33:41;6.10;;;2.20;;
19002;SDS011;9634;51.040;13.794;2023-01-10T16:38:44;7.20;;;2.40;;
19002;SDS011;9634;51.040;13.794;2023-01-10T16:43:47;5.47;;;2.30;;
19002;SDS011;9634;51.040;13.794;2023-01-10T16:48:51;10.07;;;2.53;;
19002;SDS011;9634;51.040;13.794;2023-01-10T16:53:54;5.83;;;2.07;;
19002;SDS011;9634;51.040;13.794;2023-01-10T16:58:56;7.77;;;2.73;;
19002;SDS011;9634;51.040;13.794;2023-01-10T17:04:00;7.67;;;2.40;;
19002;SDS011;9634;51.040;13.794;2023-01-10T17:09:05;7.40;;;2.57;;
19002;SDS011;9634;51.040;13.794;2023-01-10T17:14:08;9.77;;;2.40;;
19002;SDS011;9634;51.040;13.794;2023-01-10T17:19:14;5.90;;;2.10;;
19002;SDS011;9634;51.040;13.794;2023-01-10T17:24:16;7.07;;;2.50;;
19002;SDS011;9634;51.040;13.794;2023-01-10T17:29:18;9.87;;;2.50;;
19002;SDS011;9634;51.040;13.794;2023-01-10T17:34:22;9.00;;;3.30;;
19002;SDS011;9634;51.040;13.794;2023-01-10T17:39:24;8.77;;;2.50;;
19002;SDS011;9634;51.040;13.794;2023-01-10T17:44:26;6.30;;;2.73;;
19002;SDS011;9634;51.040;13.794;2023-01-10T17:49:30;7.87;;;3.70;;
19002;SDS011;9634;51.040;13.794;2023-01-10T17:54:32;7.72;;;3.60;;
19002;SDS011;9634;51.040;13.794;2023-01-10T17:59:35;6.37;;;2.93;;
19002;SDS011;9634;51.040;13.794;2023-01-10T18:04:39;5.80;;;2.90;;
19002;SDS011;9634;51.040;13.794;2023-01-10T18:09:41;5.87;;;2.87;;
19002;SDS011;9634;51.040;13.794;2023-01-10T18:14:44;4.67;;;2.40;;
19002;SDS011;9634;51.040;13.794;2023-01-10T18:19:47;5.03;;;2.97;;
19002;SDS011;9634;51.040;13.794;2023-01-10T18:24:50;5.90;;;2.40;;
19002;SDS011;9634;51.040;13.794;2023-01-10T18:29:52;5.07;;;2.33;;
19002;SDS011;9634;51.040;13.794;2023-01-10T18:34:56;6.63;;;2.70;;
19002;SDS011;9634;51.040;13.794;2023-01-10T18:39:59;8.63;;;2.80;;
19002;SDS011;9634;51.040;13.794;2023-01-10T18:45:01;4.57;;;2.43;;
19002;SDS011;9634;51.040;13.794;2023-01-10T18:50:06;7.80;;;2.43;;
19002;SDS011;9634;51.040;13.794;2023-01-10T18:55:09;5.47;;;2.30;;
19002;SDS011;9634;51.040;13.794;2023-01-10T19:00:12;5.30;;;2.10;;
19002;SDS011;9634;51.040;13.794;2023-01-10T19:05:16;5.17;;;2.10;;
19002;SDS011;9634;51.040;13.794;2023-01-10T19:10:19;7.90;;;2.70;;
19002;SDS011;9634;51.040;13.794;2023-01-10T19:15:21;8.17;;;2.87;;
19002;SDS011;9634;51.040;13.794;2023-01-10T19:20:25;9.73;;;2.07;;
19002;SDS011;9634;51.040;13.794;2023-01-10T19:25:27;5.67;;;1.93;;
19002;SDS011;9634;51.040;13.794;2023-01-10T19:30:30;5.03;;;1.77;;
19002;SDS011;9634;51.040;13.794;2023-01-10T19:35:33;4.23;;;2.07;;
19002;SDS011;9634;51.040;13.794;2023-01-10T19:40:40;8.47;;;2.70;;
19002;SDS011;9634;51.040;13.794;2023-01-10T19:45:42;8.97;;;2.40;;
19002;SDS011;9634;51.040;13.794;2023-01-10T19:50:45;5.13;;;2.17;;
19002;SDS011;9634;51.040;13.794;2023-01-10T19:55:48;5.10;;;2.73;;
19002;SDS011;9634;51.040;13.794;2023-01-10T20:00:50;7.97;;;2.73;;
19002;SDS011;9634;51.040;13.794;2023-01-10T20:05:54;7.67;;;3.00;;
19002;SDS011;9634;51.040;13.794;2023-01-10T20:11:02;6.30;;;2.37;;
19002;SDS011;9634;51.040;13.794;2023-01-10T20:16:06;7.70;;;2.70;;
19002;SDS011;9634;51.040;13.794;2023-01-10T20:21:10;9.43;;;3.07;;
19002;SDS011;9634;51.040;13.794;2023-01-10T20:26:15;6.83;;;2.93;;
19002;SDS011;9634;51.040;13.794;2023-01-10T20:31:19;6.33;;;2.57;;
19002;SDS011;9634;51.040;13.794;2023-01-10T20:36:24;11.07;;;3.00;;
19002;SDS011;9634;51.040;13.794;2023-01-10T20:41:28;8.53;;;3.47;;
19002;SDS011;9634;51.040;13.794;2023-01-10T20:46:31;9.37;;;3.07;;
19002;SDS011;9634;51.040;13.794;2023-01-10T20:51:35;9.90;;;3.30;;
19002;SDS011;9634;51.040;13.794;2023-01-10T20:56:38;7.23;;;2.07;;
19002;SDS011;9634;51.040;13.794;2023-01-10T21:01:40;6.47;;;2.73;;
19002;SDS011;9634;51.040;13.794;2023-01-10T21:06:44;12.97;;;3.70;;
19002;SDS011;9634;51.040;13.794;2023-01-10T21:11:46;7.37;;;3.63;;
19002;SDS011;9634;51.040;13.794;2023-01-10T21:16:48;8.77;;;3.30;;
19002;SDS011;9634;51.040;13.794;2023-01-10T21:21:52;7.20;;;3.50;;
19002;SDS011;9634;51.040;13.794;2023-01-10T21:26:54;6.67;;;2.97;;
19002;SDS011;9634;51.040;13.794;2023-01-10T21:31:56;4.53;;;2.70;;
19002;SDS011;9634;51.040;13.794;2023-01-10T21:37:00;6.00;;;2.90;;
19002;SDS011;9634;51.040;13.794;2023-01-10T21:42:02;2.37;;;2.10;;
19002;SDS011;9634;51.040;13.794;2023-01-10T21:47:22;3.87;;;2.30;;
19002;SDS011;9634;51.040;13.794;2023-01-10T21:52:26;5.80;;;2.60;;
19002;SDS011;9634;51.040;13.794;2023-01-10T21:57:28;7.50;;;2.37;;
19002;SDS011;9634;51.040;13.794;2023-01-10T22:02:32;5.20;;;2.40;;
19002;SDS011;9634;51.040;13.794;2023-01-10T22:07:36;4.33;;;2.13;;
